KBUF/BUF METAR and TAF weather

Enter ICAO airport designator
Station Type Date Time Source
KBUF METAR 2018/07/19 06:54 UTC NOAA

KBUF 190654Z 13006KT 10SM FEW055 16/11 A3007 RMK AO2 SLP181 T01560106


Station Type Date Time Source
KBUF Decoded METAR 2018/07/19 06:54 UTC NOAA

GREATER BUFFALO INTERNATIONAL AIRPORT , NY, United States (KBUF) 42-56N 078-44W 225M
Jul 19, 2018 - 02:54 AM EDT / 2018.07.19 0654 UTC
Wind: from the SE (130 degrees) at 7 MPH (6 KT):0
Visibility: 10 mile(s):0
Sky conditions: mostly clear
Temperature: 60.1 F (15.6 C)
Dew Point: 51.1 F (10.6 C)
Relative Humidity: 72%
Pressure (altimeter): 30.07 in. Hg (1018 hPa)
ob: KBUF 190654Z 13006KT 10SM FEW055 16/11 A3007 RMK AO2 SLP181 T01560106
cycle: 7

Station Type Date Time Source
KBUF TAF 2018/07/19 06:42 UTC NOAA

TAF KBUF 190539Z 1906/2006 15004KT P6SM FEW060
FM191400 22004KT P6SM SKC
FM192100 VRB03KT P6SM SKC
FM200400 12004KT P6SM SKC


Example: see airport list